sensor_id;sensor_type;location;lat;lon;timestamp;P1;durP1;ratioP1;P2;durP2;ratioP2
65751;SDS011;52486;51.098;13.770;2023-03-01T00:00:15;3.70;;;2.45;;
65751;SDS011;52486;51.098;13.770;2023-03-01T00:02:41;4.47;;;2.45;;
65751;SDS011;52486;51.098;13.770;2023-03-01T00:05:08;3.22;;;2.55;;
65751;SDS011;52486;51.098;13.770;2023-03-01T00:07:34;3.38;;;2.53;;
65751;SDS011;52486;51.098;13.770;2023-03-01T00:10:00;3.58;;;2.50;;
65751;SDS011;52486;51.098;13.770;2023-03-01T00:12:26;3.10;;;2.63;;
65751;SDS011;52486;51.098;13.770;2023-03-01T00:14:52;2.92;;;2.35;;
65751;SDS011;52486;51.098;13.770;2023-03-01T00:17:18;3.38;;;2.33;;
65751;SDS011;52486;51.098;13.770;2023-03-01T00:19:45;4.72;;;2.38;;
65751;SDS011;52486;51.098;13.770;2023-03-01T00:22:11;3.42;;;2.80;;
65751;SDS011;52486;51.098;13.770;2023-03-01T00:24:37;2.72;;;2.42;;
65751;SDS011;52486;51.098;13.770;2023-03-01T00:27:03;2.83;;;2.47;;
65751;SDS011;52486;51.098;13.770;2023-03-01T00:29:29;3.85;;;2.58;;
65751;SDS011;52486;51.098;13.770;2023-03-01T00:31:55;2.88;;;2.58;;
65751;SDS011;52486;51.098;13.770;2023-03-01T00:34:21;3.00;;;2.70;;
65751;SDS011;52486;51.098;13.770;2023-03-01T00:36:47;3.20;;;2.38;;
65751;SDS011;52486;51.098;13.770;2023-03-01T00:39:14;3.17;;;2.55;;
65751;SDS011;52486;51.098;13.770;2023-03-01T00:41:40;2.67;;;2.38;;
65751;SDS011;52486;51.098;13.770;2023-03-01T00:44:06;2.70;;;2.50;;
65751;SDS011;52486;51.098;13.770;2023-03-01T00:46:33;2.60;;;2.30;;
65751;SDS011;52486;51.098;13.770;2023-03-01T00:48:59;2.40;;;2.20;;
65751;SDS011;52486;51.098;13.770;2023-03-01T00:51:28;4.25;;;2.58;;
65751;SDS011;52486;51.098;13.770;2023-03-01T00:53:55;2.78;;;2.35;;
65751;SDS011;52486;51.098;13.770;2023-03-01T00:56:21;2.53;;;2.28;;
65751;SDS011;52486;51.098;13.770;2023-03-01T00:58:48;3.22;;;2.60;;
65751;SDS011;52486;51.098;13.770;2023-03-01T01:01:35;3.22;;;2.72;;
65751;SDS011;52486;51.098;13.770;2023-03-01T01:04:02;3.83;;;2.70;;
65751;SDS011;52486;51.098;13.770;2023-03-01T01:06:32;3.05;;;2.50;;
65751;SDS011;52486;51.098;13.770;2023-03-01T01:08:59;3.78;;;2.75;;
65751;SDS011;52486;51.098;13.770;2023-03-01T01:11:26;4.07;;;2.70;;
65751;SDS011;52486;51.098;13.770;2023-03-01T01:13:52;2.92;;;2.45;;
65751;SDS011;52486;51.098;13.770;2023-03-01T01:16:19;2.75;;;2.50;;
65751;SDS011;52486;51.098;13.770;2023-03-01T01:18:46;3.40;;;2.40;;
65751;SDS011;52486;51.098;13.770;2023-03-01T01:21:14;3.30;;;2.42;;
65751;SDS011;52486;51.098;13.770;2023-03-01T01:23:41;3.95;;;2.67;;
65751;SDS011;52486;51.098;13.770;2023-03-01T01:26:08;4.05;;;2.60;;
65751;SDS011;52486;51.098;13.770;2023-03-01T01:28:34;2.92;;;2.40;;
65751;SDS011;52486;51.098;13.770;2023-03-01T01:31:01;5.28;;;2.67;;
65751;SDS011;52486;51.098;13.770;2023-03-01T01:33:27;4.45;;;2.75;;
65751;SDS011;52486;51.098;13.770;2023-03-01T01:35:53;3.67;;;2.90;;
65751;SDS011;52486;51.098;13.770;2023-03-01T01:38:19;5.93;;;2.63;;
65751;SDS011;52486;51.098;13.770;2023-03-01T01:40:46;3.25;;;2.70;;
65751;SDS011;52486;51.098;13.770;2023-03-01T01:48:47;4.25;;;2.72;;
65751;SDS011;52486;51.098;13.770;2023-03-01T01:51:16;3.08;;;2.60;;
65751;SDS011;52486;51.098;13.770;2023-03-01T01:53:44;3.85;;;2.53;;
65751;SDS011;52486;51.098;13.770;2023-03-01T01:56:11;2.97;;;2.53;;
65751;SDS011;52486;51.098;13.770;2023-03-01T01:58:39;2.83;;;2.40;;
65751;SDS011;52486;51.098;13.770;2023-03-01T02:01:06;3.60;;;2.45;;
65751;SDS011;52486;51.098;13.770;2023-03-01T02:03:33;4.75;;;2.85;;
65751;SDS011;52486;51.098;13.770;2023-03-01T02:06:06;3.50;;;2.60;;
65751;SDS011;52486;51.098;13.770;2023-03-01T02:08:35;2.78;;;2.35;;
65751;SDS011;52486;51.098;13.770;2023-03-01T02:11:02;4.53;;;2.55;;
65751;SDS011;52486;51.098;13.770;2023-03-01T02:13:30;3.33;;;2.50;;
65751;SDS011;52486;51.098;13.770;2023-03-01T02:15:56;2.95;;;2.33;;
65751;SDS011;52486;51.098;13.770;2023-03-01T02:18:22;4.53;;;2.58;;
65751;SDS011;52486;51.098;13.770;2023-03-01T02:23:15;2.85;;;2.28;;
65751;SDS011;52486;51.098;13.770;2023-03-01T02:28:43;3.72;;;2.50;;
65751;SDS011;52486;51.098;13.770;2023-03-01T02:31:10;2.90;;;2.40;;
65751;SDS011;52486;51.098;13.770;2023-03-01T02:33:59;3.53;;;2.38;;
65751;SDS011;52486;51.098;13.770;2023-03-01T02:36:30;2.88;;;2.13;;
65751;SDS011;52486;51.098;13.770;2023-03-01T02:38:58;3.22;;;2.30;;
65751;SDS011;52486;51.098;13.770;2023-03-01T02:41:24;2.25;;;2.05;;
65751;SDS011;52486;51.098;13.770;2023-03-01T02:43:52;2.45;;;2.22;;
65751;SDS011;52486;51.098;13.770;2023-03-01T02:46:19;3.03;;;2.17;;
65751;SDS011;52486;51.098;13.770;2023-03-01T02:48:50;3.25;;;2.30;;
65751;SDS011;52486;51.098;13.770;2023-03-01T02:56:12;2.60;;;2.10;;
65751;SDS011;52486;51.098;13.770;2023-03-01T02:58:40;2.78;;;2.10;;
65751;SDS011;52486;51.098;13.770;2023-03-01T03:01:13;3.13;;;2.50;;
65751;SDS011;52486;51.098;13.770;2023-03-01T03:03:41;2.35;;;2.15;;
65751;SDS011;52486;51.098;13.770;2023-03-01T03:06:07;3.08;;;2.45;;
65751;SDS011;52486;51.098;13.770;2023-03-01T03:08:33;2.38;;;2.17;;
65751;SDS011;52486;51.098;13.770;2023-03-01T03:10:59;3.13;;;2.20;;
65751;SDS011;52486;51.098;13.770;2023-03-01T03:13:25;3.03;;;2.05;;
65751;SDS011;52486;51.098;13.770;2023-03-01T03:15:56;2.50;;;2.17;;
65751;SDS011;52486;51.098;13.770;2023-03-01T03:21:14;2.35;;;2.13;;
65751;SDS011;52486;51.098;13.770;2023-03-01T03:23:43;2.58;;;2.05;;
65751;SDS011;52486;51.098;13.770;2023-03-01T03:26:10;4.90;;;2.30;;
65751;SDS011;52486;51.098;13.770;2023-03-01T03:28:39;3.42;;;2.28;;
65751;SDS011;52486;51.098;13.770;2023-03-01T03:31:13;2.63;;;2.25;;
65751;SDS011;52486;51.098;13.770;2023-03-01T03:33:39;2.70;;;2.15;;
65751;SDS011;52486;51.098;13.770;2023-03-01T03:36:05;2.45;;;2.20;;
65751;SDS011;52486;51.098;13.770;2023-03-01T03:38:31;2.70;;;2.13;;
65751;SDS011;52486;51.098;13.770;2023-03-01T03:41:02;2.40;;;2.20;;
65751;SDS011;52486;51.098;13.770;2023-03-01T03:43:31;2.95;;;2.10;;
65751;SDS011;52486;51.098;13.770;2023-03-01T03:46:00;3.67;;;2.40;;
65751;SDS011;52486;51.098;13.770;2023-03-01T03:48:35;2.60;;;2.40;;
65751;SDS011;52486;51.098;13.770;2023-03-01T03:51:02;3.35;;;2.25;;
65751;SDS011;52486;51.098;13.770;2023-03-01T03:53:41;2.30;;;1.95;;
65751;SDS011;52486;51.098;13.770;2023-03-01T03:58:46;3.42;;;2.65;;
65751;SDS011;52486;51.098;13.770;2023-03-01T04:01:12;2.42;;;2.10;;
65751;SDS011;52486;51.098;13.770;2023-03-01T04:03:38;2.30;;;2.00;;
65751;SDS011;52486;51.098;13.770;2023-03-01T04:06:06;2.28;;;2.08;;
65751;SDS011;52486;51.098;13.770;2023-03-01T04:08:32;3.75;;;2.72;;
65751;SDS011;52486;51.098;13.770;2023-03-01T04:10:59;2.13;;;1.92;;
65751;SDS011;52486;51.098;13.770;2023-03-01T04:13:46;2.15;;;1.95;;
65751;SDS011;52486;51.098;13.770;2023-03-01T04:16:12;2.60;;;2.22;;
65751;SDS011;52486;51.098;13.770;2023-03-01T04:18:38;2.50;;;2.30;;
65751;SDS011;52486;51.098;13.770;2023-03-01T04:21:04;2.30;;;2.00;;
65751;SDS011;52486;51.098;13.770;2023-03-01T04:23:30;2.17;;;1.83;;
65751;SDS011;52486;51.098;13.770;2023-03-01T04:25:57;2.42;;;2.17;;
65751;SDS011;52486;51.098;13.770;2023-03-01T04:28:24;4.72;;;2.20;;
65751;SDS011;52486;51.098;13.770;2023-03-01T04:30:51;3.10;;;2.08;;
65751;SDS011;52486;51.098;13.770;2023-03-01T04:33:17;2.67;;;2.00;;
65751;SDS011;52486;51.098;13.770;2023-03-01T04:35:44;2.40;;;2.20;;
65751;SDS011;52486;51.098;13.770;2023-03-01T04:38:10;2.95;;;2.28;;
65751;SDS011;52486;51.098;13.770;2023-03-01T04:40:36;2.65;;;2.13;;
65751;SDS011;52486;51.098;13.770;2023-03-01T04:43:03;2.75;;;2.20;;
65751;SDS011;52486;51.098;13.770;2023-03-01T04:45:31;2.50;;;2.28;;
65751;SDS011;52486;51.098;13.770;2023-03-01T04:47:59;2.35;;;1.98;;
65751;SDS011;52486;51.098;13.770;2023-03-01T04:50:25;3.38;;;2.17;;
65751;SDS011;52486;51.098;13.770;2023-03-01T04:52:51;2.67;;;2.17;;
65751;SDS011;52486;51.098;13.770;2023-03-01T04:55:18;2.35;;;2.00;;
65751;SDS011;52486;51.098;13.770;2023-03-01T04:57:45;3.28;;;2.10;;
65751;SDS011;52486;51.098;13.770;2023-03-01T05:00:12;2.65;;;2.20;;
65751;SDS011;52486;51.098;13.770;2023-03-01T05:02:55;2.33;;;2.10;;
65751;SDS011;52486;51.098;13.770;2023-03-01T05:05:26;4.13;;;2.00;;
65751;SDS011;52486;51.098;13.770;2023-03-01T05:07:56;2.67;;;2.03;;
65751;SDS011;52486;51.098;13.770;2023-03-01T05:12:49;2.50;;;1.92;;
65751;SDS011;52486;51.098;13.770;2023-03-01T05:15:17;2.67;;;2.15;;
65751;SDS011;52486;51.098;13.770;2023-03-01T05:17:43;2.97;;;2.40;;
65751;SDS011;52486;51.098;13.770;2023-03-01T05:20:10;2.92;;;2.28;;
65751;SDS011;52486;51.098;13.770;2023-03-01T05:22:36;2.70;;;2.17;;
65751;SDS011;52486;51.098;13.770;2023-03-01T05:25:03;2.67;;;2.13;;
65751;SDS011;52486;51.098;13.770;2023-03-01T05:27:29;2.60;;;2.00;;
65751;SDS011;52486;51.098;13.770;2023-03-01T05:29:56;2.38;;;2.17;;
65751;SDS011;52486;51.098;13.770;2023-03-01T05:32:22;3.08;;;2.28;;
65751;SDS011;52486;51.098;13.770;2023-03-01T05:34:48;2.83;;;2.00;;
65751;SDS011;52486;51.098;13.770;2023-03-01T05:37:14;3.10;;;2.20;;
65751;SDS011;52486;51.098;13.770;2023-03-01T05:39:40;3.33;;;2.08;;
65751;SDS011;52486;51.098;13.770;2023-03-01T05:42:09;2.47;;;2.28;;
65751;SDS011;52486;51.098;13.770;2023-03-01T05:44:36;3.83;;;2.03;;
65751;SDS011;52486;51.098;13.770;2023-03-01T05:47:02;3.45;;;1.95;;
65751;SDS011;52486;51.098;13.770;2023-03-01T05:49:28;3.10;;;2.13;;
65751;SDS011;52486;51.098;13.770;2023-03-01T05:51:55;3.60;;;2.20;;
65751;SDS011;52486;51.098;13.770;2023-03-01T05:54:21;3.50;;;2.05;;
65751;SDS011;52486;51.098;13.770;2023-03-01T05:56:47;2.33;;;2.13;;
65751;SDS011;52486;51.098;13.770;2023-03-01T05:59:14;2.67;;;2.25;;
65751;SDS011;52486;51.098;13.770;2023-03-01T06:01:41;3.75;;;2.45;;
65751;SDS011;52486;51.098;13.770;2023-03-01T06:04:07;4.00;;;2.38;;
65751;SDS011;52486;51.098;13.770;2023-03-01T06:06:34;2.80;;;2.40;;
65751;SDS011;52486;51.098;13.770;2023-03-01T06:09:02;3.45;;;2.38;;
65751;SDS011;52486;51.098;13.770;2023-03-01T06:11:28;5.00;;;2.30;;
65751;SDS011;52486;51.098;13.770;2023-03-01T06:13:54;2.55;;;2.05;;
65751;SDS011;52486;51.098;13.770;2023-03-01T06:16:21;2.63;;;2.10;;
65751;SDS011;52486;51.098;13.770;2023-03-01T06:18:47;2.40;;;2.20;;
65751;SDS011;52486;51.098;13.770;2023-03-01T06:21:13;4.22;;;2.58;;
65751;SDS011;52486;51.098;13.770;2023-03-01T06:23:39;2.72;;;2.25;;
65751;SDS011;52486;51.098;13.770;2023-03-01T06:26:06;3.22;;;2.30;;
65751;SDS011;52486;51.098;13.770;2023-03-01T06:28:32;2.75;;;2.03;;
65751;SDS011;52486;51.098;13.770;2023-03-01T06:30:58;2.83;;;2.10;;
65751;SDS011;52486;51.098;13.770;2023-03-01T06:33:25;2.38;;;2.17;;
65751;SDS011;52486;51.098;13.770;2023-03-01T06:35:51;3.22;;;2.33;;
65751;SDS011;52486;51.098;13.770;2023-03-01T06:38:17;3.08;;;2.22;;
65751;SDS011;52486;51.098;13.770;2023-03-01T06:40:44;2.75;;;2.20;;
65751;SDS011;52486;51.098;13.770;2023-03-01T06:43:10;3.35;;;2.33;;
65751;SDS011;52486;51.098;13.770;2023-03-01T06:45:36;2.72;;;2.40;;
65751;SDS011;52486;51.098;13.770;2023-03-01T06:48:03;2.58;;;2.30;;
65751;SDS011;52486;51.098;13.770;2023-03-01T06:50:30;4.32;;;2.30;;
65751;SDS011;52486;51.098;13.770;2023-03-01T06:52:56;3.90;;;2.10;;
65751;SDS011;52486;51.098;13.770;2023-03-01T06:55:22;2.55;;;2.15;;
65751;SDS011;52486;51.098;13.770;2023-03-01T06:57:53;2.38;;;2.17;;
65751;SDS011;52486;51.098;13.770;2023-03-01T07:00:20;3.97;;;2.22;;
65751;SDS011;52486;51.098;13.770;2023-03-01T07:02:46;3.63;;;2.05;;
65751;SDS011;52486;51.098;13.770;2023-03-01T07:05:12;3.30;;;2.35;;
65751;SDS011;52486;51.098;13.770;2023-03-01T07:07:38;2.88;;;2.10;;
65751;SDS011;52486;51.098;13.770;2023-03-01T07:10:05;2.67;;;2.30;;
65751;SDS011;52486;51.098;13.770;2023-03-01T07:12:31;3.53;;;2.40;;
65751;SDS011;52486;51.098;13.770;2023-03-01T07:14:57;4.97;;;2.50;;
65751;SDS011;52486;51.098;13.770;2023-03-01T07:17:23;3.33;;;2.50;;
65751;SDS011;52486;51.098;13.770;2023-03-01T07:19:50;3.20;;;2.13;;
65751;SDS011;52486;51.098;13.770;2023-03-01T07:22:16;2.47;;;2.10;;
65751;SDS011;52486;51.098;13.770;2023-03-01T07:24:42;2.58;;;2.17;;
65751;SDS011;52486;51.098;13.770;2023-03-01T07:27:08;3.35;;;2.30;;
65751;SDS011;52486;51.098;13.770;2023-03-01T07:29:35;2.72;;;2.30;;
65751;SDS011;52486;51.098;13.770;2023-03-01T07:32:04;3.42;;;2.25;;
65751;SDS011;52486;51.098;13.770;2023-03-01T07:34:31;3.55;;;2.10;;
65751;SDS011;52486;51.098;13.770;2023-03-01T07:39:27;4.80;;;2.40;;
65751;SDS011;52486;51.098;13.770;2023-03-01T07:41:53;2.58;;;2.05;;
65751;SDS011;52486;51.098;13.770;2023-03-01T07:44:19;3.63;;;2.33;;
65751;SDS011;52486;51.098;13.770;2023-03-01T07:46:45;3.03;;;2.40;;
65751;SDS011;52486;51.098;13.770;2023-03-01T07:49:12;2.97;;;2.42;;
65751;SDS011;52486;51.098;13.770;2023-03-01T07:51:38;2.80;;;2.47;;
65751;SDS011;52486;51.098;13.770;2023-03-01T07:54:04;3.85;;;2.50;;
65751;SDS011;52486;51.098;13.770;2023-03-01T07:56:30;3.00;;;2.30;;
65751;SDS011;52486;51.098;13.770;2023-03-01T07:58:56;3.05;;;2.28;;
65751;SDS011;52486;51.098;13.770;2023-03-01T08:01:24;4.82;;;2.45;;
65751;SDS011;52486;51.098;13.770;2023-03-01T08:03:51;5.55;;;2.78;;
65751;SDS011;52486;51.098;13.770;2023-03-01T08:06:17;3.85;;;2.53;;
65751;SDS011;52486;51.098;13.770;2023-03-01T08:08:44;5.00;;;2.60;;
65751;SDS011;52486;51.098;13.770;2023-03-01T08:11:11;5.85;;;2.40;;
65751;SDS011;52486;51.098;13.770;2023-03-01T08:13:38;4.60;;;2.63;;
65751;SDS011;52486;51.098;13.770;2023-03-01T08:16:06;2.53;;;2.17;;
65751;SDS011;52486;51.098;13.770;2023-03-01T08:18:32;6.78;;;2.40;;
65751;SDS011;52486;51.098;13.770;2023-03-01T08:21:03;3.75;;;2.45;;
65751;SDS011;52486;51.098;13.770;2023-03-01T08:23:30;5.45;;;2.40;;
65751;SDS011;52486;51.098;13.770;2023-03-01T08:26:18;7.63;;;2.40;;
65751;SDS011;52486;51.098;13.770;2023-03-01T08:28:43;6.32;;;2.35;;
65751;SDS011;52486;51.098;13.770;2023-03-01T08:33:48;4.18;;;2.58;;
65751;SDS011;52486;51.098;13.770;2023-03-01T08:36:20;3.95;;;2.55;;
65751;SDS011;52486;51.098;13.770;2023-03-01T08:38:46;3.90;;;2.30;;
65751;SDS011;52486;51.098;13.770;2023-03-01T08:41:12;4.32;;;2.28;;
65751;SDS011;52486;51.098;13.770;2023-03-01T08:43:39;3.70;;;2.33;;
65751;SDS011;52486;51.098;13.770;2023-03-01T08:46:05;6.05;;;2.38;;
65751;SDS011;52486;51.098;13.770;2023-03-01T08:48:31;4.70;;;3.05;;
65751;SDS011;52486;51.098;13.770;2023-03-01T08:51:10;6.05;;;2.88;;
65751;SDS011;52486;51.098;13.770;2023-03-01T08:53:36;6.18;;;3.15;;
65751;SDS011;52486;51.098;13.770;2023-03-01T08:56:02;14.82;;;3.40;;
65751;SDS011;52486;51.098;13.770;2023-03-01T08:58:29;13.55;;;4.00;;
65751;SDS011;52486;51.098;13.770;2023-03-01T09:00:55;12.98;;;4.40;;
65751;SDS011;52486;51.098;13.770;2023-03-01T09:03:24;8.85;;;3.53;;
65751;SDS011;52486;51.098;13.770;2023-03-01T09:05:51;9.10;;;3.80;;
65751;SDS011;52486;51.098;13.770;2023-03-01T09:08:17;12.23;;;3.90;;
65751;SDS011;52486;51.098;13.770;2023-03-01T09:10:43;18.10;;;4.38;;
65751;SDS011;52486;51.098;13.770;2023-03-01T09:13:10;8.32;;;3.60;;
65751;SDS011;52486;51.098;13.770;2023-03-01T09:15:37;6.28;;;4.38;;
65751;SDS011;52486;51.098;13.770;2023-03-01T09:18:03;12.05;;;5.00;;
65751;SDS011;52486;51.098;13.770;2023-03-01T09:20:30;9.98;;;5.30;;
65751;SDS011;52486;51.098;13.770;2023-03-01T09:22:59;12.70;;;5.18;;
65751;SDS011;52486;51.098;13.770;2023-03-01T09:25:25;11.73;;;5.32;;
65751;SDS011;52486;51.098;13.770;2023-03-01T09:27:51;7.22;;;5.18;;
65751;SDS011;52486;51.098;13.770;2023-03-01T09:30:18;7.63;;;5.43;;
65751;SDS011;52486;51.098;13.770;2023-03-01T09:32:44;14.35;;;5.35;;
65751;SDS011;52486;51.098;13.770;2023-03-01T09:35:10;9.77;;;4.90;;
65751;SDS011;52486;51.098;13.770;2023-03-01T09:37:37;14.38;;;5.55;;
65751;SDS011;52486;51.098;13.770;2023-03-01T09:40:07;11.15;;;5.10;;
65751;SDS011;52486;51.098;13.770;2023-03-01T09:42:36;9.88;;;4.97;;
65751;SDS011;52486;51.098;13.770;2023-03-01T09:45:11;6.95;;;5.13;;
65751;SDS011;52486;51.098;13.770;2023-03-01T09:47:41;8.82;;;4.63;;
65751;SDS011;52486;51.098;13.770;2023-03-01T09:50:18;11.48;;;4.88;;
65751;SDS011;52486;51.098;13.770;2023-03-01T09:55:37;9.38;;;5.07;;
65751;SDS011;52486;51.098;13.770;2023-03-01T10:00:47;7.60;;;5.22;;
65751;SDS011;52486;51.098;13.770;2023-03-01T10:03:16;8.82;;;5.45;;
65751;SDS011;52486;51.098;13.770;2023-03-01T10:05:52;7.73;;;5.50;;
65751;SDS011;52486;51.098;13.770;2023-03-01T10:10:51;11.68;;;5.72;;
65751;SDS011;52486;51.098;13.770;2023-03-01T10:15:47;7.82;;;4.82;;
65751;SDS011;52486;51.098;13.770;2023-03-01T10:18:30;9.88;;;5.05;;
65751;SDS011;52486;51.098;13.770;2023-03-01T10:21:01;9.27;;;5.82;;
65751;SDS011;52486;51.098;13.770;2023-03-01T10:23:32;10.18;;;5.45;;
65751;SDS011;52486;51.098;13.770;2023-03-01T10:28:31;9.90;;;5.40;;
65751;SDS011;52486;51.098;13.770;2023-03-01T10:31:01;6.63;;;4.75;;
65751;SDS011;52486;51.098;13.770;2023-03-01T10:33:29;11.43;;;5.03;;
65751;SDS011;52486;51.098;13.770;2023-03-01T10:35:56;15.13;;;4.97;;
65751;SDS011;52486;51.098;13.770;2023-03-01T10:38:22;8.40;;;4.90;;
65751;SDS011;52486;51.098;13.770;2023-03-01T10:40:59;7.43;;;4.57;;
65751;SDS011;52486;51.098;13.770;2023-03-01T10:43:27;10.57;;;4.80;;
65751;SDS011;52486;51.098;13.770;2023-03-01T10:45:54;18.50;;;5.07;;
65751;SDS011;52486;51.098;13.770;2023-03-01T10:48:26;6.82;;;4.65;;
65751;SDS011;52486;51.098;13.770;2023-03-01T10:53:40;13.23;;;5.07;;
65751;SDS011;52486;51.098;13.770;2023-03-01T10:56:07;7.32;;;4.60;;
65751;SDS011;52486;51.098;13.770;2023-03-01T10:58:35;9.75;;;5.10;;
65751;SDS011;52486;51.098;13.770;2023-03-01T11:03:43;9.35;;;5.40;;
65751;SDS011;52486;51.098;13.770;2023-03-01T11:11:21;10.65;;;4.63;;
65751;SDS011;52486;51.098;13.770;2023-03-01T11:16:33;10.18;;;5.25;;
65751;SDS011;52486;51.098;13.770;2023-03-01T11:19:21;9.15;;;4.75;;
65751;SDS011;52486;51.098;13.770;2023-03-01T11:21:58;10.90;;;5.20;;
65751;SDS011;52486;51.098;13.770;2023-03-01T11:24:37;9.18;;;5.22;;
65751;SDS011;52486;51.098;13.770;2023-03-01T11:27:04;9.95;;;4.50;;
65751;SDS011;52486;51.098;13.770;2023-03-01T11:29:37;7.35;;;4.60;;
65751;SDS011;52486;51.098;13.770;2023-03-01T11:32:06;9.23;;;4.43;;
65751;SDS011;52486;51.098;13.770;2023-03-01T11:34:38;11.25;;;4.72;;
65751;SDS011;52486;51.098;13.770;2023-03-01T11:37:09;8.50;;;4.00;;
65751;SDS011;52486;51.098;13.770;2023-03-01T11:39:42;7.68;;;4.30;;
65751;SDS011;52486;51.098;13.770;2023-03-01T11:42:17;11.43;;;5.20;;
65751;SDS011;52486;51.098;13.770;2023-03-01T11:44:44;6.88;;;3.88;;
65751;SDS011;52486;51.098;13.770;2023-03-01T11:55:00;8.30;;;4.10;;
65751;SDS011;52486;51.098;13.770;2023-03-01T12:02:40;10.10;;;6.20;;
65751;SDS011;52486;51.098;13.770;2023-03-01T12:05:17;9.43;;;6.30;;
65751;SDS011;52486;51.098;13.770;2023-03-01T12:13:27;11.07;;;7.93;;
65751;SDS011;52486;51.098;13.770;2023-03-01T12:16:03;11.35;;;6.28;;
65751;SDS011;52486;51.098;13.770;2023-03-01T12:26:28;9.35;;;4.78;;
65751;SDS011;52486;51.098;13.770;2023-03-01T12:29:06;7.53;;;4.33;;
65751;SDS011;52486;51.098;13.770;2023-03-01T12:36:53;10.65;;;5.95;;
65751;SDS011;52486;51.098;13.770;2023-03-01T12:42:18;9.52;;;6.15;;
65751;SDS011;52486;51.098;13.770;2023-03-01T12:49:58;10.95;;;6.70;;
65751;SDS011;52486;51.098;13.770;2023-03-01T12:52:43;8.15;;;6.22;;
65751;SDS011;52486;51.098;13.770;2023-03-01T12:55:18;11.68;;;5.97;;
65751;SDS011;52486;51.098;13.770;2023-03-01T12:57:51;10.50;;;6.35;;
65751;SDS011;52486;51.098;13.770;2023-03-01T13:00:35;8.63;;;5.70;;
65751;SDS011;52486;51.098;13.770;2023-03-01T13:08:29;9.15;;;6.13;;
65751;SDS011;52486;51.098;13.770;2023-03-01T13:11:04;14.55;;;6.35;;
65751;SDS011;52486;51.098;13.770;2023-03-01T13:13:31;9.32;;;5.30;;
65751;SDS011;52486;51.098;13.770;2023-03-01T13:15:57;9.90;;;5.13;;
65751;SDS011;52486;51.098;13.770;2023-03-01T13:18:43;12.80;;;5.63;;
65751;SDS011;52486;51.098;13.770;2023-03-01T13:21:09;9.77;;;5.45;;
65751;SDS011;52486;51.098;13.770;2023-03-01T13:23:36;13.48;;;5.80;;
65751;SDS011;52486;51.098;13.770;2023-03-01T13:28:40;7.90;;;5.45;;
65751;SDS011;52486;51.098;13.770;2023-03-01T13:31:08;10.35;;;5.45;;
65751;SDS011;52486;51.098;13.770;2023-03-01T13:33:42;8.50;;;4.60;;
65751;SDS011;52486;51.098;13.770;2023-03-01T13:36:08;11.07;;;5.43;;
65751;SDS011;52486;51.098;13.770;2023-03-01T13:42:25;9.38;;;5.40;;
65751;SDS011;52486;51.098;13.770;2023-03-01T13:46:45;11.75;;;6.13;;
65751;SDS011;52486;51.098;13.770;2023-03-01T13:49:14;9.57;;;5.57;;
65751;SDS011;52486;51.098;13.770;2023-03-01T13:51:42;8.93;;;6.13;;
65751;SDS011;52486;51.098;13.770;2023-03-01T13:54:12;10.82;;;5.60;;
65751;SDS011;52486;51.098;13.770;2023-03-01T13:56:40;9.10;;;5.00;;
65751;SDS011;52486;51.098;13.770;2023-03-01T13:59:16;9.48;;;5.20;;
65751;SDS011;52486;51.098;13.770;2023-03-01T14:01:42;11.15;;;5.40;;
65751;SDS011;52486;51.098;13.770;2023-03-01T14:04:28;10.10;;;4.95;;
65751;SDS011;52486;51.098;13.770;2023-03-01T14:09:59;14.20;;;5.00;;
65751;SDS011;52486;51.098;13.770;2023-03-01T14:12:39;11.15;;;5.15;;
65751;SDS011;52486;51.098;13.770;2023-03-01T14:15:09;12.10;;;5.50;;
65751;SDS011;52486;51.098;13.770;2023-03-01T14:17:50;9.00;;;4.70;;
65751;SDS011;52486;51.098;13.770;2023-03-01T14:22:44;13.25;;;5.00;;
65751;SDS011;52486;51.098;13.770;2023-03-01T14:27:50;10.40;;;5.18;;
65751;SDS011;52486;51.098;13.770;2023-03-01T14:30:19;9.68;;;4.97;;
65751;SDS011;52486;51.098;13.770;2023-03-01T14:32:55;10.70;;;4.80;;
65751;SDS011;52486;51.098;13.770;2023-03-01T14:35:23;9.15;;;4.95;;
65751;SDS011;52486;51.098;13.770;2023-03-01T14:37:50;11.05;;;5.30;;
65751;SDS011;52486;51.098;13.770;2023-03-01T14:40:20;9.85;;;4.78;;
65751;SDS011;52486;51.098;13.770;2023-03-01T14:42:47;11.70;;;5.05;;
65751;SDS011;52486;51.098;13.770;2023-03-01T14:45:13;10.35;;;4.97;;
65751;SDS011;52486;51.098;13.770;2023-03-01T14:47:39;13.60;;;5.43;;
65751;SDS011;52486;51.098;13.770;2023-03-01T14:52:39;14.10;;;6.13;;
65751;SDS011;52486;51.098;13.770;2023-03-01T14:55:07;7.63;;;5.93;;
65751;SDS011;52486;51.098;13.770;2023-03-01T14:57:42;12.65;;;4.88;;
65751;SDS011;52486;51.098;13.770;2023-03-01T15:00:10;8.43;;;4.72;;
65751;SDS011;52486;51.098;13.770;2023-03-01T15:02:41;13.90;;;5.93;;
65751;SDS011;52486;51.098;13.770;2023-03-01T15:05:08;15.95;;;6.25;;
65751;SDS011;52486;51.098;13.770;2023-03-01T15:07:39;10.57;;;5.57;;
65751;SDS011;52486;51.098;13.770;2023-03-01T15:10:06;7.47;;;5.45;;
65751;SDS011;52486;51.098;13.770;2023-03-01T15:14:59;7.78;;;6.07;;
65751;SDS011;52486;51.098;13.770;2023-03-01T15:17:33;9.55;;;5.45;;
65751;SDS011;52486;51.098;13.770;2023-03-01T15:20:00;9.68;;;6.20;;
65751;SDS011;52486;51.098;13.770;2023-03-01T15:22:26;6.68;;;5.60;;
65751;SDS011;52486;51.098;13.770;2023-03-01T15:24:52;16.48;;;6.70;;
65751;SDS011;52486;51.098;13.770;2023-03-01T15:27:20;10.15;;;6.32;;
65751;SDS011;52486;51.098;13.770;2023-03-01T15:29:48;10.60;;;7.00;;
65751;SDS011;52486;51.098;13.770;2023-03-01T15:32:28;12.00;;;6.57;;
65751;SDS011;52486;51.098;13.770;2023-03-01T15:34:55;9.25;;;6.25;;
65751;SDS011;52486;51.098;13.770;2023-03-01T15:40:26;10.32;;;6.05;;
65751;SDS011;52486;51.098;13.770;2023-03-01T15:45:25;10.90;;;6.22;;
65751;SDS011;52486;51.098;13.770;2023-03-01T15:47:56;11.40;;;6.10;;
65751;SDS011;52486;51.098;13.770;2023-03-01T15:50:29;11.63;;;5.70;;
65751;SDS011;52486;51.098;13.770;2023-03-01T15:52:58;16.48;;;6.03;;
65751;SDS011;52486;51.098;13.770;2023-03-01T15:55:25;9.00;;;5.63;;
65751;SDS011;52486;51.098;13.770;2023-03-01T15:58:00;8.70;;;5.43;;
65751;SDS011;52486;51.098;13.770;2023-03-01T16:00:28;9.60;;;6.07;;
65751;SDS011;52486;51.098;13.770;2023-03-01T16:02:54;10.20;;;5.65;;
65751;SDS011;52486;51.098;13.770;2023-03-01T16:07:53;12.38;;;6.20;;
65751;SDS011;52486;51.098;13.770;2023-03-01T16:10:19;11.70;;;6.47;;
65751;SDS011;52486;51.098;13.770;2023-03-01T16:12:45;8.20;;;5.35;;
65751;SDS011;52486;51.098;13.770;2023-03-01T16:15:20;11.57;;;7.00;;
65751;SDS011;52486;51.098;13.770;2023-03-01T16:17:46;12.40;;;6.13;;
65751;SDS011;52486;51.098;13.770;2023-03-01T16:20:12;9.80;;;6.18;;
65751;SDS011;52486;51.098;13.770;2023-03-01T16:22:41;12.23;;;6.38;;
65751;SDS011;52486;51.098;13.770;2023-03-01T16:25:09;9.65;;;6.10;;
65751;SDS011;52486;51.098;13.770;2023-03-01T16:27:35;10.38;;;6.03;;
65751;SDS011;52486;51.098;13.770;2023-03-01T16:30:01;10.02;;;5.90;;
65751;SDS011;52486;51.098;13.770;2023-03-01T16:32:27;9.93;;;6.25;;
65751;SDS011;52486;51.098;13.770;2023-03-01T16:34:53;10.27;;;6.15;;
65751;SDS011;52486;51.098;13.770;2023-03-01T16:37:19;7.90;;;5.43;;
65751;SDS011;52486;51.098;13.770;2023-03-01T16:39:47;8.02;;;5.78;;
65751;SDS011;52486;51.098;13.770;2023-03-01T16:42:19;13.05;;;5.95;;
65751;SDS011;52486;51.098;13.770;2023-03-01T16:44:45;11.50;;;5.80;;
65751;SDS011;52486;51.098;13.770;2023-03-01T16:47:11;11.77;;;5.40;;